Time;durP1;ratioP1;P1;durP2;ratioP2;P2;SDS_P1;SDS_P2;PMS_P1;PMS_P2;Temp;Humidity;BMP_temperature;BMP_pressure;BME280_temperature;BME280_humidity;BME280_pressure;Samples;Min_cycle;Max_cycle;Signal;HPM_P1;HPM_P2
2023/10/03 00:01:19;;;;;;;42.07;18.80;;;13.80;99.90;;;;;;5112826;28;20483;-70
2023/10/03 00:03:48;;;;;;;37.13;17.70;;;13.80;99.90;;;;;;5113179;28;20469;-70
2023/10/03 00:06:15;;;;;;;40.83;18.90;;;13.70;99.90;;;;;;5113283;28;20480;-70
2023/10/03 00:08:44;;;;;;;42.87;17.93;;;13.80;99.90;;;;;;5113160;28;20608;-70
2023/10/03 00:11:17;;;;;;;42.50;18.17;;;13.80;99.90;;;;;;5103275;28;20549;-70
2023/10/03 00:13:43;;;;;;;41.70;20.70;;;13.80;99.90;;;;;;5092840;28;20545;-70
2023/10/03 00:16:11;;;;;;;36.80;18.10;;;13.80;99.90;;;;;;5093028;28;20451;-70
2023/10/03 00:18:37;;;;;;;39.77;19.10;;;13.80;99.90;;;;;;5093298;28;20772;-70
2023/10/03 00:21:05;;;;;;;37.00;19.77;;;13.80;99.90;;;;;;5092851;28;20443;-70
2023/10/03 00:23:32;;;;;;;44.00;19.40;;;13.80;99.90;;;;;;5092636;28;21003;-70
2023/10/03 00:26:00;;;;;;;38.90;19.60;;;13.90;99.90;;;;;;5092140;28;20530;-69
2023/10/03 00:28:27;;;;;;;44.07;19.97;;;13.90;99.90;;;;;;5093175;28;20621;-70
2023/10/03 00:30:53;;;;;;;38.00;18.13;;;14.00;99.90;;;;;;5092438;28;20538;-70
2023/10/03 00:33:25;;;;;;;48.03;20.00;;;14.00;99.90;;;;;;5092061;28;20434;-70
2023/10/03 00:35:51;;;;;;;43.37;20.20;;;14.00;99.90;;;;;;5092199;28;20451;-70
2023/10/03 00:38:19;;;;;;;42.57;19.10;;;14.00;99.90;;;;;;5092502;28;20471;-70
2023/10/03 00:40:50;;;;;;;41.70;19.10;;;13.90;99.90;;;;;;5092231;28;20413;-69
2023/10/03 00:43:17;;;;;;;38.77;18.53;;;13.90;99.90;;;;;;5092198;28;20494;-70
2023/10/03 00:45:45;;;;;;;49.97;18.87;;;13.90;99.90;;;;;;5092935;28;20864;-70
2023/10/03 00:48:12;;;;;;;42.80;18.97;;;13.90;99.90;;;;;;5093267;28;20421;-70
2023/10/03 00:50:42;;;;;;;38.50;18.30;;;13.80;99.90;;;;;;5091845;28;20428;-70
2023/10/03 00:53:10;;;;;;;51.70;18.30;;;13.80;99.90;;;;;;5092195;28;20446;-70
2023/10/03 00:55:39;;;;;;;41.47;18.00;;;13.80;99.90;;;;;;5092201;28;20538;-70
2023/10/03 00:58:17;;;;;;;36.93;18.90;;;13.80;99.90;;;;;;5091878;28;20450;-70
2023/10/03 01:00:46;;;;;;;40.17;18.00;;;13.70;99.90;;;;;;5091763;28;21006;-70
2023/10/03 01:03:27;;;;;;;38.70;18.07;;;13.70;99.90;;;;;;5091713;28;20553;-70
2023/10/03 01:05:54;;;;;;;50.17;20.10;;;13.70;99.90;;;;;;5091977;28;20451;-69
2023/10/03 01:08:23;;;;;;;33.67;16.67;;;13.70;99.90;;;;;;5091789;28;20526;-70
2023/10/03 01:10:51;;;;;;;39.00;18.10;;;13.70;99.90;;;;;;5091711;28;20447;-70
2023/10/03 01:13:20;;;;;;;37.63;18.67;;;13.70;99.90;;;;;;5091218;28;21043;-70
2023/10/03 01:15:49;;;;;;;47.73;20.43;;;13.70;99.90;;;;;;5091888;28;20470;-69
2023/10/03 01:18:20;;;;;;;39.83;19.10;;;13.70;99.90;;;;;;5091419;28;20826;-70
2023/10/03 01:20:48;;;;;;;48.20;19.63;;;13.70;99.90;;;;;;5091443;28;20944;-69
2023/10/03 01:23:17;;;;;;;39.00;18.50;;;13.70;99.90;;;;;;5091170;28;20465;-70
2023/10/03 01:25:44;;;;;;;38.80;18.10;;;13.60;99.90;;;;;;5091543;28;20606;-70
2023/10/03 01:28:12;;;;;;;43.07;18.30;;;13.60;99.90;;;;;;5091325;28;20525;-70
2023/10/03 01:30:40;;;;;;;40.57;19.00;;;13.60;99.90;;;;;;5093159;28;20480;-69
2023/10/03 01:33:08;;;;;;;39.87;19.93;;;13.60;99.90;;;;;;5093649;28;20913;-69
2023/10/03 01:35:35;;;;;;;40.63;18.13;;;13.50;99.90;;;;;;5092964;28;20443;-70
2023/10/03 01:38:02;;;;;;;47.70;20.97;;;13.50;99.90;;;;;;5093626;28;20838;-70
2023/10/03 01:40:30;;;;;;;39.07;19.07;;;13.50;99.90;;;;;;5093293;28;20534;-69
2023/10/03 01:42:57;;;;;;;35.10;18.60;;;13.50;99.90;;;;;;5093014;28;20521;-69
2023/10/03 01:45:25;;;;;;;39.93;19.50;;;13.50;99.90;;;;;;5091246;28;20458;-69
2023/10/03 01:47:51;;;;;;;37.43;19.67;;;13.40;99.90;;;;;;5091413;28;20460;-70
2023/10/03 01:50:19;;;;;;;39.70;20.70;;;13.40;99.90;;;;;;5093105;28;20486;-70
2023/10/03 01:52:47;;;;;;;40.53;18.87;;;13.40;99.90;;;;;;5093401;28;20462;-69
2023/10/03 01:55:17;;;;;;;41.03;20.37;;;13.40;99.90;;;;;;5093999;28;20529;-71
2023/10/03 01:57:46;;;;;;;41.57;19.90;;;13.50;99.90;;;;;;5093365;28;20954;-70
2023/10/03 02:00:21;;;;;;;39.10;20.87;;;13.50;99.90;;;;;;5094440;28;20545;-70
2023/10/03 02:02:48;;;;;;;40.60;19.00;;;13.40;99.90;;;;;;5093061;28;20517;-70
2023/10/03 02:05:15;;;;;;;43.67;19.33;;;13.40;99.90;;;;;;5094452;28;20425;-70
2023/10/03 02:07:42;;;;;;;40.77;18.57;;;13.40;99.90;;;;;;5093422;28;20449;-69
2023/10/03 02:10:12;;;;;;;40.20;19.30;;;13.40;99.90;;;;;;5094791;28;20553;-69
2023/10/03 02:12:40;;;;;;;42.37;20.70;;;13.30;99.90;;;;;;5093397;28;20545;-70
2023/10/03 02:15:09;;;;;;;42.87;20.17;;;13.30;99.90;;;;;;5094620;28;20451;-70
2023/10/03 02:17:36;;;;;;;45.70;21.20;;;13.30;99.90;;;;;;5093694;28;20424;-70
2023/10/03 02:20:08;;;;;;;52.87;22.30;;;13.30;99.90;;;;;;5093757;28;20417;-70
2023/10/03 02:22:38;;;;;;;51.47;22.67;;;13.30;99.90;;;;;;5093368;28;20911;-70
2023/10/03 02:25:06;;;;;;;44.73;19.90;;;13.30;99.90;;;;;;5094311;28;20875;-70
2023/10/03 02:27:33;;;;;;;42.07;20.47;;;13.40;99.90;;;;;;5094023;28;20531;-70
2023/10/03 02:30:04;;;;;;;53.03;22.93;;;13.40;99.90;;;;;;5091984;28;20932;-70
2023/10/03 02:32:33;;;;;;;43.20;20.50;;;13.40;99.90;;;;;;5090406;28;20470;-70
2023/10/03 02:35:01;;;;;;;43.50;20.47;;;13.40;99.90;;;;;;5090793;28;20454;-69
2023/10/03 02:37:27;;;;;;;50.93;20.27;;;13.40;99.90;;;;;;5090923;28;20533;-70
2023/10/03 02:39:55;;;;;;;41.40;18.37;;;13.40;99.90;;;;;;5090847;28;20421;-70
2023/10/03 02:42:23;;;;;;;43.10;19.63;;;13.40;99.90;;;;;;5090217;28;20559;-70
2023/10/03 02:44:50;;;;;;;42.47;19.97;;;13.40;99.90;;;;;;5094055;28;20478;-70
2023/10/03 02:47:17;;;;;;;40.97;20.00;;;13.40;99.90;;;;;;5095424;28;20496;-70
2023/10/03 02:49:45;;;;;;;46.40;20.30;;;13.40;99.90;;;;;;5095867;28;20443;-70
2023/10/03 02:52:12;;;;;;;40.37;19.63;;;13.40;99.90;;;;;;5094135;28;20890;-70
2023/10/03 02:54:38;;;;;;;45.20;20.40;;;13.40;99.90;;;;;;5094652;28;20533;-70
2023/10/03 02:57:05;;;;;;;39.70;19.93;;;13.40;99.90;;;;;;5094321;28;20550;-70
2023/10/03 02:59:32;;;;;;;39.53;19.83;;;13.40;99.90;;;;;;5094066;28;20421;-70
2023/10/03 03:01:59;;;;;;;45.23;20.27;;;13.40;99.90;;;;;;5093948;28;20541;-70
2023/10/03 03:04:25;;;;;;;43.20;18.83;;;13.40;99.90;;;;;;5096330;28;20463;-70
2023/10/03 03:06:54;;;;;;;43.67;20.07;;;13.40;99.90;;;;;;5097947;28;20511;-70
2023/10/03 03:09:23;;;;;;;47.30;20.77;;;13.40;99.90;;;;;;5099633;28;20420;-70
2023/10/03 03:11:51;;;;;;;42.47;19.70;;;13.40;99.90;;;;;;5097588;28;20750;-70
2023/10/03 03:14:18;;;;;;;41.10;19.47;;;13.40;99.90;;;;;;5099546;28;20413;-70
2023/10/03 03:16:48;;;;;;;40.97;20.93;;;13.40;99.90;;;;;;5098038;28;20470;-70
2023/10/03 03:19:15;;;;;;;40.70;19.70;;;13.40;99.90;;;;;;5099813;28;20421;-70
2023/10/03 03:21:42;;;;;;;43.83;21.17;;;13.40;99.90;;;;;;5097899;28;20418;-70
2023/10/03 03:24:10;;;;;;;45.50;19.97;;;13.40;99.90;;;;;;5098706;28;20526;-70
2023/10/03 03:26:39;;;;;;;38.67;19.93;;;13.30;99.90;;;;;;5097967;28;20596;-70
2023/10/03 03:29:20;;;;;;;45.03;20.67;;;13.30;99.90;;;;;;5098188;28;20455;-70
2023/10/03 03:31:46;;;;;;;38.93;19.47;;;13.30;99.90;;;;;;5097799;28;20518;-70
2023/10/03 03:34:13;;;;;;;44.93;19.33;;;13.30;99.90;;;;;;5099729;28;20521;-70
2023/10/03 03:36:40;;;;;;;43.17;19.60;;;13.20;99.90;;;;;;5097976;28;20519;-70
2023/10/03 03:39:15;;;;;;;46.83;21.40;;;13.20;99.90;;;;;;5098911;28;20432;-70
2023/10/03 03:41:43;;;;;;;46.90;20.87;;;13.20;99.90;;;;;;5098058;28;20409;-70
2023/10/03 03:44:11;;;;;;;42.13;19.67;;;13.20;99.90;;;;;;5095332;28;20494;-70
2023/10/03 03:46:40;;;;;;;42.77;20.43;;;13.10;99.90;;;;;;5093258;28;20449;-70
2023/10/03 03:49:07;;;;;;;45.00;19.83;;;13.10;99.90;;;;;;5094252;28;20809;-70
2023/10/03 03:51:34;;;;;;;46.03;21.37;;;13.10;99.90;;;;;;5098673;28;20533;-70
2023/10/03 03:54:01;;;;;;;48.87;19.87;;;13.10;99.90;;;;;;5097742;28;20511;-70
2023/10/03 03:56:28;;;;;;;45.73;21.80;;;13.10;99.90;;;;;;5099872;27;20445;-70
2023/10/03 03:58:56;;;;;;;38.60;19.40;;;13.10;99.90;;;;;;5097940;28;20447;-70
2023/10/03 04:01:23;;;;;;;48.13;19.67;;;13.10;99.90;;;;;;5099701;28;20519;-70
2023/10/03 04:03:51;;;;;;;47.20;20.33;;;13.10;99.90;;;;;;5097636;28;20522;-70
2023/10/03 04:06:18;;;;;;;44.03;19.67;;;13.10;99.90;;;;;;5100031;28;21005;-70
2023/10/03 04:08:46;;;;;;;42.70;21.13;;;13.10;99.90;;;;;;5098005;28;20439;-70
2023/10/03 04:11:13;;;;;;;43.93;20.60;;;13.20;99.90;;;;;;5099723;28;20494;-70
2023/10/03 04:13:49;;;;;;;50.60;21.70;;;13.10;99.90;;;;;;5097986;28;20550;-70
2023/10/03 04:16:19;;;;;;;52.10;21.70;;;13.20;99.90;;;;;;5100087;28;20450;-70
2023/10/03 04:18:49;;;;;;;52.63;21.93;;;13.20;99.90;;;;;;5097862;28;20451;-70
2023/10/03 04:21:15;;;;;;;46.00;21.40;;;13.10;99.90;;;;;;5100004;28;20940;-70
2023/10/03 04:23:44;;;;;;;49.43;20.73;;;13.20;99.90;;;;;;5097643;28;21020;-70
2023/10/03 04:26:11;;;;;;;55.93;22.27;;;13.20;99.90;;;;;;5099607;28;20458;-69
2023/10/03 04:28:38;;;;;;;52.53;21.80;;;13.20;99.90;;;;;;5098722;28;20454;-71
2023/10/03 04:31:06;;;;;;;50.73;20.83;;;13.20;99.90;;;;;;5092626;28;20525;-71
2023/10/03 04:33:34;;;;;;;44.83;20.67;;;13.20;99.90;;;;;;5092329;28;20478;-71
2023/10/03 04:36:04;;;;;;;49.10;21.57;;;13.20;99.90;;;;;;5092488;28;20953;-71
2023/10/03 04:38:31;;;;;;;47.97;21.90;;;13.20;99.90;;;;;;5092546;28;20446;-72
2023/10/03 04:40:58;;;;;;;46.43;22.07;;;13.30;99.90;;;;;;5092582;28;20520;-71
2023/10/03 04:43:27;;;;;;;45.03;20.50;;;13.20;99.90;;;;;;5095176;28;20581;-71
2023/10/03 04:45:54;;;;;;;49.03;21.20;;;13.20;99.90;;;;;;5097695;28;20465;-70
2023/10/03 04:48:22;;;;;;;50.13;21.10;;;13.20;99.90;;;;;;5100422;28;20446;-70
2023/10/03 04:50:50;;;;;;;41.93;20.80;;;13.20;99.90;;;;;;5093168;28;20484;-70
2023/10/03 04:53:18;;;;;;;45.73;20.07;;;13.10;99.90;;;;;;5100136;28;20497;-70
2023/10/03 04:55:47;;;;;;;43.70;20.47;;;13.10;99.90;;;;;;5097883;28;20980;-69
2023/10/03 04:58:14;;;;;;;43.83;21.17;;;13.10;99.90;;;;;;5099692;28;20495;-70
2023/10/03 05:00:42;;;;;;;48.63;21.10;;;13.10;99.90;;;;;;5098585;28;20502;-71
2023/10/03 05:03:09;;;;;;;49.13;21.50;;;13.10;99.90;;;;;;5098596;28;20846;-70
2023/10/03 05:05:36;;;;;;;43.77;21.00;;;13.10;99.90;;;;;;5099574;28;20453;-70
2023/10/03 05:08:05;;;;;;;46.70;22.23;;;13.10;99.90;;;;;;5098219;28;20450;-70
2023/10/03 05:10:33;;;;;;;48.07;21.97;;;13.10;99.90;;;;;;5099496;28;20906;-70
2023/10/03 05:13:00;;;;;;;54.37;21.60;;;13.10;99.90;;;;;;5097389;28;20515;-70
2023/10/03 05:15:27;;;;;;;56.43;22.93;;;13.00;99.90;;;;;;5100856;28;20454;-70
2023/10/03 05:17:55;;;;;;;46.33;21.00;;;13.00;99.90;;;;;;5098340;28;20889;-70
2023/10/03 05:20:34;;;;;;;44.00;21.60;;;13.00;99.90;;;;;;5101253;28;20533;-70
2023/10/03 05:23:02;;;;;;;46.50;21.60;;;13.10;99.90;;;;;;5097941;28;20474;-70
2023/10/03 05:25:29;;;;;;;44.90;21.57;;;13.10;99.90;;;;;;5100526;28;20454;-70
2023/10/03 05:27:56;;;;;;;47.17;23.43;;;13.10;99.90;;;;;;5098202;28;20443;-71
2023/10/03 05:30:25;;;;;;;50.47;23.80;;;13.20;99.90;;;;;;5094548;28;20450;-70
2023/10/03 05:32:51;;;;;;;42.03;20.80;;;13.20;99.90;;;;;;5097854;28;20462;-69
2023/10/03 05:35:18;;;;;;;46.83;21.30;;;13.20;99.90;;;;;;5100771;28;20443;-69
2023/10/03 05:37:45;;;;;;;49.30;21.03;;;13.20;99.90;;;;;;5098532;28;20974;-69
2023/10/03 05:40:19;;;;;;;47.70;22.53;;;13.30;99.90;;;;;;5099659;28;20446;-70
2023/10/03 05:42:48;;;;;;;49.73;21.17;;;13.30;99.90;;;;;;5097898;28;20465;-70
2023/10/03 05:45:15;;;;;;;51.23;21.70;;;13.40;99.90;;;;;;5091021;28;20578;-70
2023/10/03 05:47:42;;;;;;;45.27;19.10;;;13.40;99.90;;;;;;5090993;28;20524;-70
2023/10/03 05:50:10;;;;;;;40.53;20.87;;;13.50;99.90;;;;;;5095513;28;21005;-71
2023/10/03 05:52:37;;;;;;;51.07;21.23;;;13.50;99.90;;;;;;5099854;28;20539;-71
2023/10/03 05:55:05;;;;;;;46.03;22.13;;;13.60;99.90;;;;;;5099137;28;20442;-71
2023/10/03 05:57:32;;;;;;;41.07;20.47;;;13.60;99.90;;;;;;5101240;28;20494;-71
2023/10/03 06:00:00;;;;;;;49.37;22.97;;;13.60;99.90;;;;;;5098264;28;20478;-68
2023/10/03 06:02:27;;;;;;;49.83;23.87;;;13.80;99.90;;;;;;5094537;28;20505;-67
2023/10/03 06:04:54;;;;;;;46.03;20.73;;;13.80;99.90;;;;;;5098166;28;20513;-69
2023/10/03 06:07:21;;;;;;;50.57;22.20;;;13.80;99.90;;;;;;5101628;28;20450;-68
2023/10/03 06:09:48;;;;;;;46.47;21.07;;;13.90;99.90;;;;;;5099133;28;20500;-68
2023/10/03 06:12:14;;;;;;;40.90;20.57;;;14.00;99.90;;;;;;5100335;28;20544;-68
2023/10/03 06:14:41;;;;;;;48.10;23.07;;;14.00;99.90;;;;;;5099769;28;20982;-68
2023/10/03 06:17:09;;;;;;;47.97;21.63;;;14.10;99.90;;;;;;5099553;28;20449;-68
2023/10/03 06:19:37;;;;;;;42.87;20.00;;;14.20;99.90;;;;;;5100618;28;20503;-70
2023/10/03 06:22:05;;;;;;;46.77;21.17;;;14.50;99.90;;;;;;5098932;28;20478;-67
2023/10/03 06:24:32;;;;;;;42.13;20.13;;;14.70;99.90;;;;;;5104540;28;21017;-68
2023/10/03 06:26:58;;;;;;;48.23;20.80;;;15.00;99.90;;;;;;5102982;28;20443;-70
2023/10/03 06:29:25;;;;;;;39.57;18.87;;;15.10;99.90;;;;;;5094867;28;20414;-69
2023/10/03 06:31:52;;;;;;;44.43;20.10;;;15.30;99.90;;;;;;5094250;28;20866;-68
2023/10/03 06:34:20;;;;;;;43.50;20.00;;;15.50;99.90;;;;;;5094435;28;20462;-68
2023/10/03 06:36:47;;;;;;;41.53;18.57;;;15.60;99.90;;;;;;5094747;28;20439;-68
2023/10/03 06:39:13;;;;;;;39.37;19.20;;;15.70;99.90;;;;;;5094374;28;20932;-69
2023/10/03 06:41:40;;;;;;;40.57;18.73;;;15.60;99.90;;;;;;5094392;28;20915;-68
2023/10/03 06:44:07;;;;;;;39.30;20.27;;;15.50;99.90;;;;;;5097880;28;20543;-68
2023/10/03 06:46:34;;;;;;;35.73;17.70;;;15.50;99.90;;;;;;5105550;28;20442;-68
2023/10/03 06:49:01;;;;;;;38.50;17.87;;;15.40;99.90;;;;;;5101386;28;20466;-68
2023/10/03 06:51:29;;;;;;;43.93;20.17;;;15.40;99.90;;;;;;5094626;28;20421;-68
2023/10/03 06:53:55;;;;;;;39.30;17.63;;;15.40;99.90;;;;;;5102566;28;20444;-68
2023/10/03 06:56:23;;;;;;;41.93;17.93;;;15.30;99.90;;;;;;5106040;28;20441;-68
2023/10/03 06:58:50;;;;;;;43.13;19.10;;;15.30;99.90;;;;;;5103411;28;20842;-67
2023/10/03 07:01:16;;;;;;;36.17;18.20;;;15.40;99.90;;;;;;5104757;28;20967;-69
2023/10/03 07:03:43;;;;;;;34.70;18.10;;;15.40;99.90;;;;;;5104681;28;20432;-69
2023/10/03 07:06:10;;;;;;;38.77;18.27;;;15.50;99.90;;;;;;5104659;28;20455;-69
2023/10/03 07:08:41;;;;;;;36.70;16.90;;;15.50;99.90;;;;;;5105488;28;20425;-70
2023/10/03 07:11:12;;;;;;;38.40;17.47;;;15.60;99.90;;;;;;5103976;28;20488;-68
2023/10/03 07:13:39;;;;;;;32.73;16.67;;;15.70;99.90;;;;;;5104908;28;20496;-68
2023/10/03 07:16:05;;;;;;;41.10;17.13;;;15.70;99.90;;;;;;5103829;28;20508;-68
2023/10/03 07:18:35;;;;;;;38.30;16.87;;;15.80;99.90;;;;;;5106291;28;20420;-68
2023/10/03 07:21:03;;;;;;;36.10;15.73;;;15.90;99.90;;;;;;5103156;28;20466;-68
2023/10/03 07:23:30;;;;;;;31.13;15.00;;;15.90;99.90;;;;;;5106038;28;20441;-68
2023/10/03 07:25:58;;;;;;;30.77;14.20;;;16.00;99.90;;;;;;5102763;28;20490;-68
2023/10/03 07:28:24;;;;;;;38.80;15.30;;;16.10;99.90;;;;;;5096973;28;20466;-68
2023/10/03 07:30:51;;;;;;;35.13;14.27;;;16.20;99.90;;;;;;5094626;27;20447;-68
2023/10/03 07:33:18;;;;;;;31.27;15.30;;;16.20;99.90;;;;;;5093291;28;20516;-68
2023/10/03 07:35:44;;;;;;;29.40;15.23;;;16.30;99.90;;;;;;5093086;28;20443;-68
2023/10/03 07:38:12;;;;;;;30.60;13.43;;;16.40;99.90;;;;;;5093498;28;20429;-68
2023/10/03 07:40:39;;;;;;;31.20;15.33;;;16.50;99.90;;;;;;5093274;28;20980;-69
2023/10/03 07:43:09;;;;;;;28.17;13.80;;;16.60;99.90;;;;;;5092203;28;20473;-68
2023/10/03 07:45:37;;;;;;;32.27;15.60;;;16.60;99.90;;;;;;5105862;28;20961;-69
2023/10/03 07:48:05;;;;;;;30.03;15.43;;;16.80;99.90;;;;;;5103306;28;20457;-69
2023/10/03 07:50:32;;;;;;;33.03;15.37;;;16.80;99.90;;;;;;5095377;28;20450;-69
2023/10/03 07:52:59;;;;;;;39.63;15.10;;;16.80;99.90;;;;;;5102536;28;20441;-68
2023/10/03 07:55:26;;;;;;;34.60;15.20;;;16.90;99.90;;;;;;5096552;28;20921;-67
2023/10/03 07:57:54;;;;;;;30.27;14.67;;;16.90;99.90;;;;;;5103608;28;20959;-68
2023/10/03 08:00:26;;;;;;;34.93;16.60;;;17.00;99.90;;;;;;5105740;28;20427;-68
2023/10/03 08:02:53;;;;;;;33.23;16.40;;;17.00;99.90;;;;;;5103430;28;20541;-68
2023/10/03 08:05:20;;;;;;;34.20;16.07;;;17.10;99.90;;;;;;5105622;28;20658;-68
2023/10/03 08:07:48;;;;;;;32.73;16.40;;;17.20;99.90;;;;;;5104708;28;20448;-68
2023/10/03 08:10:16;;;;;;;29.20;15.43;;;17.20;99.90;;;;;;5104899;28;20809;-69
2023/10/03 08:12:43;;;;;;;35.30;16.00;;;17.30;99.90;;;;;;5104835;28;20975;-68
2023/10/03 08:15:17;;;;;;;31.47;15.93;;;17.40;99.90;;;;;;5104401;28;20440;-68
2023/10/03 08:17:48;;;;;;;34.37;15.40;;;17.50;99.90;;;;;;5105402;28;20540;-69
2023/10/03 08:20:15;;;;;;;27.63;15.40;;;17.50;99.90;;;;;;5104745;28;20512;-68
2023/10/03 08:22:46;;;;;;;27.03;13.83;;;17.70;99.90;;;;;;5104898;28;20462;-68
2023/10/03 08:25:13;;;;;;;32.07;14.60;;;17.80;99.90;;;;;;5104518;28;20641;-69
2023/10/03 08:27:39;;;;;;;31.30;14.20;;;17.90;99.90;;;;;;5105752;28;20946;-69
2023/10/03 08:30:08;;;;;;;27.97;13.07;;;18.00;99.90;;;;;;5097476;28;20425;-68
2023/10/03 08:32:39;;;;;;;30.07;14.90;;;18.10;99.90;;;;;;5092043;28;20471;-68
2023/10/03 08:35:09;;;;;;;29.20;14.63;;;18.10;99.90;;;;;;5103487;28;20523;-69
2023/10/03 08:37:38;;;;;;;25.60;13.50;;;18.20;99.90;;;;;;5106731;28;20857;-69
2023/10/03 08:40:19;;;;;;;27.57;13.80;;;18.40;99.90;;;;;;5103502;28;20447;-69
2023/10/03 08:42:52;;;;;;;23.10;12.90;;;18.60;99.90;;;;;;5102493;28;20549;-68
2023/10/03 08:45:22;;;;;;;24.60;12.57;;;18.80;99.90;;;;;;5091363;28;20482;-69
2023/10/03 08:47:51;;;;;;;23.67;13.13;;;18.90;99.90;;;;;;5091651;28;20538;-69
2023/10/03 08:50:33;;;;;;;22.93;13.43;;;18.90;99.90;;;;;;5097582;28;20812;-69
2023/10/03 08:53:12;;;;;;;26.80;13.43;;;18.90;99.90;;;;;;5102852;28;20832;-69
2023/10/03 08:55:43;;;;;;;25.80;13.30;;;18.90;99.90;;;;;;5088443;28;20474;-68
2023/10/03 08:58:13;;;;;;;24.57;13.07;;;18.90;99.90;;;;;;5092053;28;20857;-69
2023/10/03 09:00:44;;;;;;;23.40;12.20;;;18.90;99.90;;;;;;5091422;28;20546;-69
2023/10/03 09:03:13;;;;;;;25.33;12.30;;;18.90;99.90;;;;;;5091439;28;20465;-69
2023/10/03 09:05:41;;;;;;;22.60;11.20;;;18.80;99.90;;;;;;5091406;28;21030;-69
2023/10/03 09:08:09;;;;;;;21.07;12.33;;;18.80;99.90;;;;;;5091623;28;20957;-69
2023/10/03 09:10:50;;;;;;;22.93;12.60;;;18.80;99.90;;;;;;5091260;28;20447;-68
2023/10/03 09:13:23;;;;;;;18.50;11.63;;;18.70;99.90;;;;;;5104333;28;20567;-69
2023/10/03 09:15:51;;;;;;;23.37;13.00;;;18.60;99.90;;;;;;5105091;28;20449;-69
2023/10/03 09:18:21;;;;;;;23.80;11.67;;;18.60;99.90;;;;;;5105794;28;20465;-69
2023/10/03 09:20:50;;;;;;;20.13;11.40;;;18.60;99.90;;;;;;5105310;27;20518;-69
2023/10/03 09:23:18;;;;;;;19.00;10.63;;;18.60;99.90;;;;;;5105291;28;20462;-69
2023/10/03 09:25:52;;;;;;;20.33;11.40;;;18.60;99.90;;;;;;5106176;28;20481;-69
2023/10/03 09:28:19;;;;;;;30.30;11.70;;;18.60;99.90;;;;;;5105909;28;20758;-69
2023/10/03 09:30:45;;;;;;;17.17;10.33;;;18.60;99.90;;;;;;5094100;28;20488;-69
2023/10/03 09:33:13;;;;;;;22.60;11.30;;;18.70;99.90;;;;;;5090766;28;20470;-69
2023/10/03 09:35:39;;;;;;;23.70;11.30;;;18.70;99.90;;;;;;5091044;28;20512;-69
2023/10/03 09:38:09;;;;;;;20.33;10.57;;;18.70;99.90;;;;;;5091024;28;21009;-69
2023/10/03 09:40:49;;;;;;;21.47;10.03;;;18.80;99.90;;;;;;5091236;28;20446;-69
2023/10/03 09:43:19;;;;;;;17.70;10.13;;;18.90;99.90;;;;;;5099649;28;20486;-69
2023/10/03 09:45:47;;;;;;;18.70;11.30;;;19.00;99.90;;;;;;5090835;28;20487;-69
2023/10/03 09:48:15;;;;;;;15.67;9.80;;;19.10;99.90;;;;;;5091309;28;20450;-69
2023/10/03 09:50:51;;;;;;;15.50;9.30;;;19.20;99.90;;;;;;5100298;28;20537;-69
2023/10/03 09:53:27;;;;;;;21.00;9.63;;;19.30;99.90;;;;;;5105523;28;20515;-69
2023/10/03 09:55:55;;;;;;;18.23;9.30;;;19.40;99.90;;;;;;5105254;28;20495;-69
2023/10/03 09:58:25;;;;;;;16.33;10.13;;;19.50;99.90;;;;;;5105904;28;20453;-69
2023/10/03 10:00:53;;;;;;;17.93;9.40;;;19.60;99.90;;;;;;5106113;28;20525;-69
2023/10/03 10:03:26;;;;;;;18.23;9.67;;;19.80;99.90;;;;;;5106004;28;20528;-69
2023/10/03 10:06:01;;;;;;;34.83;18.90;;;19.80;99.90;;;;;;5105442;28;20609;-69
2023/10/03 10:08:41;;;;;;;22.17;13.23;;;20.00;99.90;;;;;;5096365;28;20437;-69
2023/10/03 10:11:09;;;;;;;21.50;10.13;;;20.20;99.90;;;;;;5104459;28;20920;-69
2023/10/03 10:13:41;;;;;;;22.30;10.20;;;20.40;99.90;;;;;;5106910;28;20548;-69
2023/10/03 10:16:15;;;;;;;18.33;9.87;;;20.70;99.90;;;;;;5104716;28;20441;-69
2023/10/03 10:18:59;;;;;;;17.67;8.87;;;21.20;99.90;;;;;;5107286;28;20456;-70
2023/10/03 10:21:30;;;;;;;16.73;8.70;;;21.80;99.90;;;;;;5094517;28;20446;-69
2023/10/03 10:24:40;;;;;;;20.30;9.80;;;22.20;99.90;;;;;;5105214;28;20907;-70
2023/10/03 10:27:21;;;;;;;13.13;7.00;;;22.50;99.90;;;;;;5021219;28;20458;-69
2023/10/03 10:29:58;;;;;;;12.97;6.73;;;22.70;99.90;;;;;;5095843;28;20446;-69
2023/10/03 10:32:27;;;;;;;14.37;7.97;;;22.90;99.90;;;;;;5094603;28;20576;-69
2023/10/03 10:34:57;;;;;;;11.17;6.50;;;22.90;99.90;;;;;;5106477;28;20537;-69
2023/10/03 10:37:24;;;;;;;9.30;6.53;;;23.10;99.90;;;;;;5107078;28;20880;-69
2023/10/03 10:40:10;;;;;;;11.10;7.10;;;23.30;99.90;;;;;;5106793;28;20945;-69
2023/10/03 10:43:04;;;;;;;15.00;6.07;;;23.70;99.90;;;;;;5095328;28;20536;-69
2023/10/03 10:45:37;;;;;;;14.13;6.63;;;24.10;99.90;;;;;;5096473;28;20481;-69
2023/10/03 10:48:05;;;;;;;12.10;6.17;;;24.40;99.90;;;;;;5105757;28;20450;-69
2023/10/03 10:51:08;;;;;;;8.10;5.73;;;24.50;99.90;;;;;;5092470;28;20443;-69
2023/10/03 10:53:39;;;;;;;10.00;5.00;;;24.60;99.90;;;;;;5096864;28;20489;-69
2023/10/03 10:56:09;;;;;;;9.77;5.57;;;24.80;99.90;;;;;;5105815;28;20478;-69
2023/10/03 10:58:47;;;;;;;9.57;5.20;;;25.10;99.90;;;;;;5108014;28;20580;-69
2023/10/03 11:01:14;;;;;;;15.93;5.87;;;25.00;99.90;;;;;;5104472;28;20537;-69
2023/10/03 11:03:43;;;;;;;5.70;4.77;;;24.80;99.90;;;;;;5107455;28;20975;-69
2023/10/03 11:06:15;;;;;;;10.37;5.50;;;24.60;99.90;;;;;;5105992;28;20531;-69
2023/10/03 11:08:46;;;;;;;8.47;4.80;;;24.20;99.90;;;;;;5108111;28;20476;-69
2023/10/03 11:11:14;;;;;;;8.67;4.93;;;23.90;99.90;;;;;;5110137;27;20495;-69
2023/10/03 11:13:46;;;;;;;11.10;5.87;;;23.60;99.90;;;;;;5111478;28;20473;-69
2023/10/03 11:16:21;;;;;;;6.60;4.57;;;23.40;99.90;;;;;;5110062;27;20439;-69
2023/10/03 11:18:49;;;;;;;10.33;5.40;;;23.20;99.90;;;;;;5111698;28;20441;-69
2023/10/03 11:21:17;;;;;;;6.20;4.27;;;22.90;99.90;;;;;;5110073;28;20438;-69
2023/10/03 11:24:14;;;;;;;10.90;5.00;;;22.80;99.90;;;;;;5111004;28;20458;-69
2023/10/03 11:26:53;;;;;;;8.03;4.93;;;22.70;99.90;;;;;;5102155;28;20492;-69
2023/10/03 11:29:37;;;;;;;8.70;4.80;;;22.50;99.90;;;;;;5107826;28;20442;-69
2023/10/03 11:32:04;;;;;;;10.70;4.63;;;22.60;99.90;;;;;;5093158;28;20443;-69
2023/10/03 11:34:34;;;;;;;7.97;5.40;;;22.60;99.90;;;;;;5093885;28;20442;-69
2023/10/03 11:37:03;;;;;;;7.73;4.60;;;22.70;99.90;;;;;;5093320;28;20962;-69
2023/10/03 11:39:36;;;;;;;7.10;4.90;;;22.70;99.90;;;;;;5093775;28;20451;-69
2023/10/03 11:42:09;;;;;;;9.10;5.13;;;22.70;99.90;;;;;;5093214;28;20450;-69
2023/10/03 11:44:37;;;;;;;6.17;4.40;;;22.70;99.90;;;;;;5101494;28;20437;-69
2023/10/03 11:47:04;;;;;;;15.57;5.23;;;22.60;99.90;;;;;;5110351;28;20578;-69
2023/10/03 11:49:31;;;;;;;8.60;5.23;;;22.50;99.90;;;;;;5103080;28;20439;-69
2023/10/03 11:51:58;;;;;;;8.50;5.80;;;22.40;99.90;;;;;;5092915;28;20476;-69
2023/10/03 11:54:24;;;;;;;9.90;5.43;;;22.20;99.90;;;;;;5093331;28;20591;-69
2023/10/03 11:56:51;;;;;;;9.50;6.10;;;22.00;99.90;;;;;;5093422;28;20442;-69
2023/10/03 11:59:19;;;;;;;8.63;5.23;;;21.90;99.90;;;;;;5110442;28;20496;-69
2023/10/03 12:01:48;;;;;;;7.70;5.13;;;21.80;99.90;;;;;;5111599;28;20499;-69
2023/10/03 12:04:15;;;;;;;12.83;5.40;;;21.70;99.90;;;;;;5110144;28;20443;-68
2023/10/03 12:06:42;;;;;;;12.70;4.80;;;21.70;99.90;;;;;;5111560;28;20857;-69
2023/10/03 12:09:09;;;;;;;8.47;5.20;;;21.60;99.90;;;;;;5110556;28;20450;-69
2023/10/03 12:11:37;;;;;;;7.47;4.93;;;21.60;99.90;;;;;;5111502;28;20473;-69
2023/10/03 12:14:04;;;;;;;8.27;5.20;;;21.50;99.90;;;;;;5110310;28;20504;-69
2023/10/03 12:16:32;;;;;;;7.60;4.67;;;21.50;99.90;;;;;;5112032;28;20664;-69
2023/10/03 12:18:59;;;;;;;6.27;4.53;;;21.40;99.90;;;;;;5111159;28;20721;-69
2023/10/03 12:21:26;;;;;;;6.60;4.67;;;21.20;99.90;;;;;;5096739;28;20529;-69
2023/10/03 12:23:52;;;;;;;6.93;5.17;;;21.20;99.90;;;;;;5111415;28;20548;-69
2023/10/03 12:26:19;;;;;;;10.50;5.27;;;21.20;99.90;;;;;;5110923;28;20486;-69
2023/10/03 12:28:45;;;;;;;11.40;5.00;;;21.20;99.90;;;;;;5111233;28;20852;-69
2023/10/03 12:31:12;;;;;;;7.97;5.00;;;21.10;99.90;;;;;;5092395;28;20971;-69
2023/10/03 12:33:40;;;;;;;9.17;5.60;;;20.90;99.90;;;;;;5092254;28;20462;-69
2023/10/03 12:36:11;;;;;;;8.13;5.17;;;20.90;99.90;;;;;;5092579;28;20500;-69
2023/10/03 12:38:38;;;;;;;6.83;4.60;;;20.80;99.90;;;;;;5092296;28;20443;-69
2023/10/03 12:41:05;;;;;;;12.40;6.00;;;20.70;99.90;;;;;;5092002;28;20508;-69